Time;durP1;ratioP1;P1;durP2;ratioP2;P2;SDS_P1;SDS_P2;PMS_P1;PMS_P2;Temp;Humidity;BMP_temperature;BMP_pressure;BME280_temperature;BME280_humidity;BME280_pressure;Samples;Min_cycle;Max_cycle;Signal;HPM_P1;HPM_P2
2022/02/08 00:01:59;;;;;;;7.60;2.33;;;;;;;2.68;74.67;98033.28;5093423;28;20059;-78
2022/02/08 00:04:27;;;;;;;10.15;2.20;;;;;;;2.67;73.48;98029.06;5093104;28;20536;-76
2022/02/08 00:06:55;;;;;;;5.18;2.63;;;;;;;2.67;74.57;98031.66;5092714;28;20048;-77
2022/02/08 00:09:24;;;;;;;6.22;2.55;;;;;;;2.67;74.24;98034.22;5093178;28;20395;-77
2022/02/08 00:11:51;;;;;;;9.68;2.80;;;;;;;2.67;72.80;98029.06;5092932;28;20501;-77
2022/02/08 00:14:19;;;;;;;9.43;2.80;;;;;;;2.68;73.87;98028.94;5093037;28;20055;-77
2022/02/08 00:16:47;;;;;;;9.45;2.30;;;;;;;2.70;74.53;98033.19;5092513;28;20044;-77
2022/02/08 00:19:15;;;;;;;4.40;2.33;;;;;;;2.71;73.76;98030.50;5092815;28;20058;-78
2022/02/08 00:21:43;;;;;;;6.10;2.17;;;;;;;2.73;74.33;98030.41;5092979;28;20184;-77
2022/02/08 00:24:11;;;;;;;7.15;2.20;;;;;;;2.73;72.57;98032.97;5092498;28;20051;-77
2022/02/08 00:26:38;;;;;;;7.72;2.30;;;;;;;2.74;73.20;98035.47;5092553;28;20059;-77
2022/02/08 00:29:06;;;;;;;7.85;2.55;;;;;;;2.74;73.02;98029.50;5092604;28;20070;-77
2022/02/08 00:31:33;;;;;;;6.57;2.33;;;;;;;2.77;73.80;98029.28;5092805;28;20058;-77
2022/02/08 00:34:01;;;;;;;5.75;2.08;;;;;;;2.78;73.56;98036.94;5092738;28;20055;-77
2022/02/08 00:36:30;;;;;;;4.45;2.30;;;;;;;2.78;71.65;98034.34;5092398;28;20059;-77
2022/02/08 00:38:57;;;;;;;7.15;2.03;;;;;;;2.77;72.04;98039.59;5092572;28;20101;-77
2022/02/08 00:41:25;;;;;;;5.60;1.88;;;;;;;2.77;72.69;98044.75;5092483;28;20081;-76
2022/02/08 00:43:58;;;;;;;7.45;2.15;;;;;;;2.77;72.93;98039.59;5092276;28;20055;-77
2022/02/08 00:46:34;;;;;;;9.30;2.75;;;;;;;2.82;74.08;98040.13;5091966;28;20410;-77
2022/02/08 00:49:04;;;;;;;9.32;2.60;;;;;;;2.86;74.82;98034.72;5092583;28;20048;-77
2022/02/08 00:51:41;;;;;;;7.72;3.05;;;;;;;2.89;73.16;98047.38;5092476;28;20055;-77
2022/02/08 00:54:09;;;;;;;5.68;2.65;;;;;;;2.91;73.34;98046.44;5092432;28;20402;-76
2022/02/08 00:56:37;;;;;;;7.03;2.17;;;;;;;2.88;72.03;98048.28;5092109;28;20052;-77
2022/02/08 00:59:05;;;;;;;6.15;2.50;;;;;;;2.86;71.94;98045.00;5092392;28;20559;-77
2022/02/08 01:01:36;;;;;;;5.70;2.42;;;;;;;2.87;72.52;98048.41;5092292;28;20043;-77
2022/02/08 01:04:04;;;;;;;8.52;2.53;;;;;;;2.87;73.67;98056.97;5097388;28;20052;-77
2022/02/08 01:06:33;;;;;;;5.03;2.33;;;;;;;2.88;72.46;98050.88;5115376;28;20044;-78
2022/02/08 01:09:11;;;;;;;5.75;1.80;;;;;;;2.91;71.95;98055.03;5115582;28;20299;-77
2022/02/08 01:11:41;;;;;;;5.45;2.42;;;;;;;2.94;72.33;98056.56;5108897;28;20048;-78
2022/02/08 01:14:09;;;;;;;6.50;2.72;;;;;;;2.97;73.01;98046.88;5094360;28;20051;-77
2022/02/08 01:16:36;;;;;;;6.43;2.30;;;;;;;2.99;72.60;98044.22;5092922;28;20052;-77
2022/02/08 01:19:05;;;;;;;4.32;2.00;;;;;;;3.00;73.01;98046.69;5093422;28;20075;-77
2022/02/08 01:21:34;;;;;;;6.03;2.20;;;;;;;2.98;71.76;98050.31;5092639;28;20044;-78
2022/02/08 01:24:02;;;;;;;7.78;2.50;;;;;;;2.99;72.43;98054.53;5092558;28;20421;-77
2022/02/08 01:26:31;;;;;;;5.35;2.00;;;;;;;2.99;71.92;98054.53;5092129;28;20048;-77
2022/02/08 01:29:04;;;;;;;8.00;2.10;;;;;;;3.01;72.38;98057.81;5092300;28;20060;-77
2022/02/08 01:31:37;;;;;;;7.72;2.13;;;;;;;2.95;69.79;98047.91;5092350;28;20059;-77
2022/02/08 01:34:13;;;;;;;4.38;2.00;;;;;;;2.87;69.37;98051.81;5092198;28;20056;-77
2022/02/08 01:36:49;;;;;;;7.03;2.22;;;;;;;2.83;71.13;98047.78;5095933;28;20048;-77
2022/02/08 01:39:24;;;;;;;10.23;2.15;;;;;;;2.83;71.98;98044.38;5096554;28;20093;-77
2022/02/08 01:42:13;;;;;;;5.90;2.08;;;;;;;2.87;72.33;98048.41;5097044;28;20263;-77
2022/02/08 01:44:46;;;;;;;5.10;2.83;;;;;;;2.91;72.02;98042.13;5095999;28;20501;-77
2022/02/08 01:47:24;;;;;;;;;;;;;;;2.95;72.58;98038.44;5096467;28;20059;-77
2022/02/08 01:50:00;;;;;;;5.43;1.67;;;;;;;2.99;72.61;98045.03;5095844;28;19920;-76
2022/02/08 01:52:29;;;;;;;9.25;1.90;;;;;;;2.98;71.96;98043.38;5096140;28;20052;-76
2022/02/08 01:54:57;;;;;;;5.80;1.80;;;;;;;3.02;73.05;98038.88;5095799;28;20048;-77
2022/02/08 01:57:24;;;;;;;4.55;1.65;;;;;;;3.05;72.33;98036.91;5095966;28;20047;-76
2022/02/08 01:59:54;;;;;;;4.20;1.80;;;;;;;3.06;71.56;98042.88;5096175;28;20077;-76
2022/02/08 02:02:21;;;;;;;4.68;1.90;;;;;;;3.08;72.71;98038.44;5095949;28;20417;-77
2022/02/08 02:04:49;;;;;;;7.45;2.47;;;;;;;3.09;72.96;98034.97;5095668;28;20177;-76
2022/02/08 02:07:17;;;;;;;6.80;1.67;;;;;;;3.13;72.91;98036.44;5095376;28;20078;-76
2022/02/08 02:09:46;;;;;;;6.15;1.52;;;;;;;3.15;73.48;98044.03;5095770;28;20493;-76
2022/02/08 02:12:15;;;;;;;6.75;1.65;;;;;;;3.16;72.25;98046.53;5095574;28;20051;-76
2022/02/08 02:14:42;;;;;;;6.25;1.90;;;;;;;3.17;72.78;98043.03;5095371;28;20501;-76
2022/02/08 02:17:10;;;;;;;4.18;1.58;;;;;;;3.19;72.31;98043.75;5095605;28;20052;-76
2022/02/08 02:19:40;;;;;;;3.08;1.67;;;;;;;3.19;72.32;98046.34;5095339;28;20048;-75
2022/02/08 02:22:09;;;;;;;5.40;1.50;;;;;;;3.20;71.56;98054.91;5095252;28;20411;-76
2022/02/08 02:24:39;;;;;;;3.55;1.58;;;;;;;3.21;73.26;98052.19;5095702;28;20048;-76
2022/02/08 02:27:09;;;;;;;5.28;1.92;;;;;;;3.24;73.05;98049.44;5094943;28;20048;-77
2022/02/08 02:29:37;;;;;;;5.30;1.85;;;;;;;3.24;72.45;98052.03;5095220;28;20399;-76
2022/02/08 02:32:06;;;;;;;5.63;1.55;;;;;;;3.22;70.18;98050.47;5094985;28;20055;-76
2022/02/08 02:34:33;;;;;;;1.80;1.23;;;;;;;3.17;69.68;98048.19;5095179;28;20512;-76
2022/02/08 02:37:02;;;;;;;3.78;1.40;;;;;;;3.16;70.85;98045.72;5094755;28;20047;-76
2022/02/08 02:39:29;;;;;;;2.72;1.45;;;;;;;3.20;72.50;98040.25;5096670;28;20125;-75
2022/02/08 02:41:58;;;;;;;4.65;1.45;;;;;;;3.23;73.18;98036.63;5095042;28;20102;-76
2022/02/08 02:44:26;;;;;;;6.97;1.60;;;;;;;3.23;70.74;98042.63;5095103;28;20047;-76
2022/02/08 02:46:54;;;;;;;5.70;1.42;;;;;;;3.23;71.92;98029.72;5093659;28;20051;-76
2022/02/08 02:49:27;;;;;;;7.40;1.40;;;;;;;3.24;74.03;98033.97;5094970;28;20052;-76
2022/02/08 02:51:56;;;;;;;7.32;1.90;;;;;;;3.24;73.85;98036.53;5094846;28;20048;-78
2022/02/08 02:54:23;;;;;;;3.03;1.27;;;;;;;3.23;72.82;98040.03;5094378;28;20113;-76
2022/02/08 02:56:51;;;;;;;7.30;1.65;;;;;;;3.24;73.02;98035.72;5094180;28;20109;-76
2022/02/08 02:59:21;;;;;;;4.45;1.67;;;;;;;3.24;73.17;98033.16;5094377;28;20056;-77
2022/02/08 03:02:13;;;;;;;4.47;1.60;;;;;;;3.24;73.34;98039.13;5094398;28;20051;-76
2022/02/08 03:04:50;;;;;;;2.87;1.33;;;;;;;3.27;73.35;98026.00;5094378;28;20047;-76
2022/02/08 03:18:34;;;;;;;2.95;1.50;;;;;;;3.26;72.62;98032.13;5093943;28;20047;-76
2022/02/08 03:21:03;;;;;;;7.65;1.63;;;;;;;3.26;72.00;98031.28;5094129;28;20421;-76
2022/02/08 03:23:31;;;;;;;6.93;1.55;;;;;;;3.28;72.39;98038.00;5093938;28;20167;-76
2022/02/08 03:25:59;;;;;;;6.07;1.77;;;;;;;3.28;73.36;98048.31;5093545;28;20044;-76
2022/02/08 03:28:28;;;;;;;6.32;1.33;;;;;;;3.31;73.81;98049.88;5094023;28;20040;-76
2022/02/08 03:30:57;;;;;;;3.40;1.20;;;;;;;3.32;71.23;98050.69;5093752;28;20052;-76
2022/02/08 03:33:26;;;;;;;9.20;1.63;;;;;;;3.30;71.55;98048.19;5093505;28;20528;-76
2022/02/08 03:35:55;;;;;;;5.53;1.60;;;;;;;3.35;72.85;98050.50;5093671;28;20049;-76
2022/02/08 03:38:29;;;;;;;4.05;1.48;;;;;;;3.39;72.31;98057.09;5093538;28;20055;-77
2022/02/08 03:40:56;;;;;;;8.10;1.38;;;;;;;3.40;71.98;98053.59;5093831;28;20544;-76
2022/02/08 03:43:32;;;;;;;5.82;1.60;;;;;;;3.38;72.28;98045.13;5095014;28;20048;-77
2022/02/08 03:46:06;;;;;;;4.32;1.30;;;;;;;3.34;69.36;98047.06;5095086;28;20127;-77
2022/02/08 03:48:36;;;;;;;5.65;2.10;;;;;;;3.32;71.40;98050.69;5094756;28;20048;-77
2022/02/08 03:51:11;;;;;;;4.97;1.42;;;;;;;3.34;70.67;98048.84;5095096;28;20052;-77
2022/02/08 03:53:41;;;;;;;7.35;1.52;;;;;;;3.33;70.25;98044.63;5093774;28;20048;-76
2022/02/08 03:56:09;;;;;;;6.57;1.40;;;;;;;3.32;71.74;98048.09;5093444;28;20052;-77
2022/02/08 03:58:37;;;;;;;4.45;1.30;;;;;;;3.31;70.77;98055.03;5092379;28;20479;-76
2022/02/08 04:04:05;;;;;;;5.75;1.80;;;;;;;3.30;71.32;98054.19;5093183;28;20052;-76
2022/02/08 04:06:32;;;;;;;6.18;1.80;;;;;;;3.35;72.04;98063.41;5092986;28;20051;-76
2022/02/08 04:09:00;;;;;;;4.40;1.60;;;;;;;3.35;70.06;98058.25;5096870;28;20070;-77
2022/02/08 04:11:31;;;;;;;7.00;1.73;;;;;;;3.38;71.49;98051.09;5093692;28;20052;-77
2022/02/08 04:14:15;;;;;;;5.25;2.03;;;;;;;3.44;72.37;98049.88;5093367;28;20048;-76
2022/02/08 04:16:44;;;;;;;5.90;2.15;;;;;;;3.47;72.34;98054.84;5092601;28;20673;-76
2022/02/08 04:19:19;;;;;;;5.07;1.65;;;;;;;3.49;72.16;98060.72;5093220;28;20056;-76
2022/02/08 04:33:04;;;;;;;4.40;1.27;;;;;;;3.54;72.12;98061.22;5092802;28;20105;-76
2022/02/08 04:35:43;;;;;;;6.63;1.90;;;;;;;3.56;72.27;98049.06;5092843;28;20059;-76
2022/02/08 04:38:23;;;;;;;6.15;2.40;;;;;;;3.55;71.26;98057.75;5092976;28;20551;-76
2022/02/08 04:40:56;;;;;;;7.38;1.80;;;;;;;3.53;70.31;98059.59;5092597;28;20044;-76
2022/02/08 04:43:34;;;;;;;5.95;1.38;;;;;;;3.47;68.25;98054.84;5092424;28;20063;-77
2022/02/08 04:46:08;;;;;;;4.07;1.38;;;;;;;3.42;68.98;98056.91;5092102;28;20063;-76
2022/02/08 04:48:45;;;;;;;6.88;1.65;;;;;;;3.44;70.95;98060.22;5092758;28;20043;-76
2022/02/08 04:51:19;;;;;;;7.55;1.70;;;;;;;3.44;70.96;98055.88;5092687;28;20055;-76
2022/02/08 04:53:54;;;;;;;5.35;1.75;;;;;;;3.43;69.91;98059.38;5092511;28;20052;-76
2022/02/08 04:56:32;;;;;;;6.13;1.70;;;;;;;3.43;71.06;98049.06;5092215;28;20055;-76
2022/02/08 04:59:13;;;;;;;4.85;1.65;;;;;;;3.40;69.20;98048.44;5092449;28;20516;-77
2022/02/08 05:01:58;;;;;;;5.30;1.98;;;;;;;3.33;70.37;98042.03;5092428;28;20405;-76
2022/02/08 05:35:18;;;;;;;4.55;2.00;;;;;;;3.11;70.38;98056.31;5101693;28;20055;-76
2022/02/08 05:40:38;;;;;;;5.57;1.73;;;;;;;3.15;69.17;98064.66;5097808;28;20055;-76
2022/02/08 05:43:49;;;;;;;7.65;2.63;;;;;;;3.24;69.61;98069.25;5117059;28;20036;-77
2022/02/08 05:49:06;;;;;;;5.05;1.65;;;;;;;3.33;71.62;98062.66;5083268;28;20192;-76
2022/02/08 05:51:57;;;;;;;28.67;12.45;;;;;;;3.38;72.21;98061.41;5096425;28;20056;-76
2022/02/08 05:54:26;;;;;;;17.88;9.18;;;;;;;3.44;72.80;98061.03;5096441;28;20051;-75
2022/02/08 05:56:54;;;;;;;12.15;3.05;;;;;;;3.49;71.55;98063.31;5095659;28;20520;-77
2022/02/08 05:59:23;;;;;;;8.00;1.80;;;;;;;3.52;72.18;98057.94;5095850;28;20048;-77
2022/02/08 06:01:50;;;;;;;3.78;1.48;;;;;;;3.55;71.47;98042.25;5096049;28;20078;-76
2022/02/08 06:04:18;;;;;;;6.90;1.40;;;;;;;3.57;71.94;98040.41;5095920;28;20406;-76
2022/02/08 06:06:47;;;;;;;3.33;1.63;;;;;;;3.55;71.74;98042.25;5095592;28;20150;-77
2022/02/08 06:09:15;;;;;;;7.95;1.92;;;;;;;3.58;71.06;98039.47;5095619;28;20044;-76
2022/02/08 06:11:48;;;;;;;5.40;1.98;;;;;;;3.59;71.12;98042.88;5095813;28;20072;-76
2022/02/08 06:14:24;;;;;;;4.15;1.35;;;;;;;3.61;71.14;98047.00;5095894;28;20059;-77
2022/02/08 06:16:51;;;;;;;4.32;2.42;;;;;;;3.61;70.65;98041.84;5095252;28;20048;-76
2022/02/08 06:19:19;;;;;;;3.38;1.50;;;;;;;3.62;70.32;98032.34;5095506;28;20052;-77
2022/02/08 06:21:46;;;;;;;5.90;1.70;;;;;;;3.60;69.91;98037.59;5094359;28;20109;-76
2022/02/08 06:24:14;;;;;;;6.95;1.98;;;;;;;3.63;71.55;98044.31;5095515;28;20048;-76
2022/02/08 06:26:41;;;;;;;5.55;1.95;;;;;;;3.64;70.17;98041.63;5095216;28;20043;-76
2022/02/08 06:29:14;;;;;;;6.28;2.90;;;;;;;3.64;70.94;98044.22;5095421;28;20048;-76
2022/02/08 06:31:44;;;;;;;;;;;;;;;3.68;71.77;98043.09;5089804;28;20048;-76
2022/02/08 06:34:13;;;;;;;7.38;2.05;;;;;;;3.69;71.60;98043.91;5096778;28;19920;-76
2022/02/08 06:36:41;;;;;;;5.32;1.60;;;;;;;3.67;70.07;98027.69;5096056;28;20118;-77
2022/02/08 06:39:08;;;;;;;6.43;2.22;;;;;;;3.64;69.84;98036.47;5096123;28;20048;-76
2022/02/08 06:41:35;;;;;;;6.25;1.45;;;;;;;3.65;70.78;98045.03;5087083;28;20509;-77
2022/02/08 06:44:03;;;;;;;5.82;1.65;;;;;;;3.64;69.81;98053.72;5095380;28;20445;-76
2022/02/08 06:46:34;;;;;;;8.73;2.03;;;;;;;3.66;70.55;98054.44;5094710;28;20081;-76
2022/02/08 06:49:02;;;;;;;8.73;1.88;;;;;;;3.67;70.95;98064.69;5094685;28;20390;-76
2022/02/08 06:51:29;;;;;;;6.75;2.35;;;;;;;3.68;70.29;98060.34;5094484;28;20131;-76
2022/02/08 06:53:57;;;;;;;8.43;3.22;;;;;;;3.71;71.69;98052.38;5094390;28;20056;-76
2022/02/08 06:56:25;;;;;;;5.43;2.17;;;;;;;3.74;71.03;98051.34;5094247;28;20056;-77
2022/02/08 06:59:02;;;;;;;8.73;2.35;;;;;;;3.71;70.20;98058.34;5090145;28;20044;-77
2022/02/08 07:01:33;;;;;;;5.65;1.65;;;;;;;3.72;70.96;98057.44;5094159;28;20052;-76
2022/02/08 07:04:03;;;;;;;5.28;1.90;;;;;;;3.74;70.95;98062.50;5093847;28;20623;-76
2022/02/08 07:06:31;;;;;;;7.43;1.60;;;;;;;3.78;71.81;98069.09;5094411;28;20040;-76
2022/02/08 07:08:58;;;;;;;4.35;2.05;;;;;;;3.81;72.10;98068.09;5094190;28;20044;-76
2022/02/08 07:11:26;;;;;;;11.20;1.85;;;;;;;3.84;72.37;98067.88;5093827;28;20055;-76
2022/02/08 07:13:54;;;;;;;5.40;1.83;;;;;;;3.85;71.86;98074.69;5093428;28;20074;-76
2022/02/08 07:16:21;;;;;;;5.35;1.60;;;;;;;3.87;72.00;98081.41;5093875;28;20512;-76
2022/02/08 07:18:49;;;;;;;5.40;1.45;;;;;;;3.88;71.68;98080.47;5093866;28;20447;-76
2022/02/08 07:21:18;;;;;;;7.03;1.67;;;;;;;3.92;70.41;98088.84;5094029;28;20048;-76
2022/02/08 07:23:45;;;;;;;5.38;1.73;;;;;;;3.92;70.63;98087.06;5094914;28;20058;-77
2022/02/08 07:26:13;;;;;;;6.35;1.60;;;;;;;3.94;71.44;98089.56;5093437;28;20521;-76
2022/02/08 07:28:42;;;;;;;7.13;1.85;;;;;;;3.95;69.59;98083.44;5092100;28;20048;-77
2022/02/08 07:31:17;;;;;;;11.05;2.50;;;;;;;3.99;70.92;98087.47;5094120;28;20097;-76
2022/02/08 07:33:52;;;;;;;8.45;2.28;;;;;;;4.04;71.13;98085.41;5093915;28;20059;-77
2022/02/08 07:36:33;;;;;;;6.28;2.17;;;;;;;4.08;71.16;98086.84;5093915;28;20143;-76
2022/02/08 07:39:01;;;;;;;8.57;2.70;;;;;;;4.09;71.44;98082.53;5094274;28;20635;-77
2022/02/08 07:41:39;;;;;;;6.30;2.10;;;;;;;4.10;70.74;98073.84;5093696;28;20093;-76
2022/02/08 07:44:08;;;;;;;7.88;2.10;;;;;;;4.11;71.18;98084.06;5093613;28;20113;-75
2022/02/08 07:46:36;;;;;;;7.60;2.55;;;;;;;4.12;71.02;98082.31;5092924;28;20071;-76
2022/02/08 07:49:05;;;;;;;10.88;2.20;;;;;;;4.15;70.95;98083.84;5095840;28;20040;-76
2022/02/08 07:51:37;;;;;;;8.63;2.20;;;;;;;4.18;71.52;98069.00;5096929;28;20056;-77
2022/02/08 07:54:05;;;;;;;7.93;2.58;;;;;;;4.21;71.68;98065.38;5096467;28;20505;-76
2022/02/08 07:56:33;;;;;;;9.45;1.70;;;;;;;4.24;71.66;98067.72;5095691;28;20075;-77
2022/02/08 07:59:01;;;;;;;7.28;1.77;;;;;;;4.29;71.53;98066.50;5095548;28;20047;-77
2022/02/08 08:01:28;;;;;;;4.93;2.10;;;;;;;4.37;71.55;98068.53;5094862;28;20494;-77
2022/02/08 08:03:56;;;;;;;11.43;2.40;;;;;;;4.43;70.32;98078.44;5094339;28;20490;-76
2022/02/08 08:06:24;;;;;;;8.90;2.92;;;;;;;4.47;69.23;98068.72;5094480;28;20052;-76
2022/02/08 08:08:54;;;;;;;7.53;2.10;;;;;;;4.49;70.39;98075.44;5094817;28;20048;-76
2022/02/08 08:11:23;;;;;;;3.85;1.52;;;;;;;4.54;70.84;98078.50;5096111;28;20115;-76
2022/02/08 08:14:00;;;;;;;5.32;2.00;;;;;;;4.58;71.37;98081.72;5092996;28;20052;-76
2022/02/08 08:16:40;;;;;;;8.05;2.05;;;;;;;4.59;70.13;98090.28;5093302;28;20067;-76
2022/02/08 08:19:20;;;;;;;8.93;1.85;;;;;;;4.61;71.30;98085.84;5096231;28;20399;-77
2022/02/08 08:21:48;;;;;;;7.57;3.33;;;;;;;4.62;69.67;98085.75;5095623;28;20048;-76
2022/02/08 08:24:18;;;;;;;6.55;2.22;;;;;;;4.65;70.98;98090.69;5094713;28;20051;-76
2022/02/08 08:26:45;;;;;;;7.97;1.73;;;;;;;4.68;69.94;98084.47;5092447;28;20476;-77
2022/02/08 08:29:13;;;;;;;7.43;2.00;;;;;;;4.69;68.12;98080.97;5092865;28;20044;-76
2022/02/08 08:31:40;;;;;;;5.57;1.60;;;;;;;4.72;69.52;98078.16;5092699;28;20052;-76
2022/02/08 08:34:09;;;;;;;7.97;2.50;;;;;;;4.78;70.42;98085.47;5092631;28;20090;-76
2022/02/08 08:36:37;;;;;;;9.02;2.15;;;;;;;4.81;69.92;98085.28;5092184;28;20051;-77
2022/02/08 08:39:05;;;;;;;8.90;2.20;;;;;;;4.87;71.10;98084.81;5092657;28;20080;-76
2022/02/08 08:41:35;;;;;;;6.10;1.77;;;;;;;4.90;69.96;98071.69;5092784;28;20052;-76
2022/02/08 08:52:32;;;;;;;10.35;2.60;;;;;;;5.05;69.66;98072.34;5092640;28;20048;-76
2022/02/08 08:55:03;;;;;;;5.78;1.73;;;;;;;5.10;69.94;98066.84;5092254;28;20059;-76
2022/02/08 08:57:33;;;;;;;4.68;1.52;;;;;;;5.15;69.96;98068.13;5092071;28;20051;-77
2022/02/08 09:00:02;;;;;;;5.75;1.65;;;;;;;5.19;69.77;98060.19;5092399;28;20055;-76
2022/02/08 09:02:32;;;;;;;6.88;2.00;;;;;;;5.26;69.75;98067.38;5092335;28;20048;-76
2022/02/08 09:05:01;;;;;;;8.32;1.80;;;;;;;5.36;70.15;98070.94;5092183;28;20048;-76
2022/02/08 09:07:31;;;;;;;8.30;2.40;;;;;;;5.45;70.02;98081.56;5091837;28;20047;-76
2022/02/08 09:10:01;;;;;;;16.48;4.18;;;;;;;5.48;70.09;98074.38;5092018;28;20051;-76
2022/02/08 09:12:53;;;;;;;10.30;1.80;;;;;;;5.53;69.04;98076.63;5091979;28;20517;-77
2022/02/08 09:15:34;;;;;;;7.88;1.80;;;;;;;5.57;69.83;98078.03;5092133;28;20138;-76
2022/02/08 09:18:22;;;;;;;8.52;1.50;;;;;;;5.63;68.89;98067.22;5091916;28;20052;-76
2022/02/08 09:21:21;;;;;;;7.35;2.17;;;;;;;5.65;68.60;98065.34;5091944;28;20048;-77
2022/02/08 09:24:14;;;;;;;11.50;2.53;;;;;;;5.64;68.07;98063.72;5091597;28;20086;-77
2022/02/08 09:27:04;;;;;;;5.78;1.95;;;;;;;5.69;67.73;98058.19;5091823;28;20399;-77
2022/02/08 09:29:45;;;;;;;8.93;1.70;;;;;;;5.78;67.67;98055.72;5092195;28;20060;-77
2022/02/08 09:32:18;;;;;;;3.45;1.52;;;;;;;5.95;67.92;98061.44;5092325;28;20063;-76
2022/02/08 09:34:47;;;;;;;8.60;2.30;;;;;;;6.06;68.32;98058.84;5092197;28;20048;-76
2022/02/08 09:37:16;;;;;;;7.38;1.65;;;;;;;6.09;66.56;98055.19;5092164;28;20048;-77
2022/02/08 09:39:50;;;;;;;6.30;1.85;;;;;;;6.16;67.79;98057.19;5092197;28;20044;-77
2022/02/08 09:42:18;;;;;;;6.40;2.00;;;;;;;6.22;68.09;98055.09;5093191;28;20048;-77
2022/02/08 09:44:45;;;;;;;7.28;1.67;;;;;;;6.24;66.88;98051.44;5092306;28;20048;-77
2022/02/08 09:47:19;;;;;;;12.40;2.33;;;;;;;6.28;65.39;98057.22;5092126;28;20052;-76
2022/02/08 09:49:53;;;;;;;8.02;2.10;;;;;;;6.33;66.12;98060.25;5091783;28;20540;-76
2022/02/08 09:52:25;;;;;;;11.15;1.95;;;;;;;6.36;67.33;98054.81;5092377;28;20082;-76
2022/02/08 09:54:52;;;;;;;8.27;2.20;;;;;;;6.38;66.27;98058.13;5095640;28;20048;-77
2022/02/08 09:57:20;;;;;;;8.15;2.13;;;;;;;6.38;66.23;98055.53;5101776;28;20054;-78
2022/02/08 09:59:48;;;;;;;6.63;2.20;;;;;;;6.41;66.20;98060.50;5100989;28;20048;-77
2022/02/08 10:02:22;;;;;;;6.30;1.77;;;;;;;6.48;64.20;98058.25;5100667;28;20055;-77
2022/02/08 10:04:59;;;;;;;5.35;2.30;;;;;;;6.53;64.64;98059.50;5101342;28;20055;-78
2022/02/08 10:07:28;;;;;;;8.40;2.42;;;;;;;6.57;65.54;98071.28;5101355;28;20044;-77
2022/02/08 10:09:55;;;;;;;6.50;2.13;;;;;;;6.58;65.53;98049.63;5100197;28;20048;-77
2022/02/08 10:12:29;;;;;;;10.35;1.98;;;;;;;6.59;65.57;98059.03;5098579;28;20048;-77
2022/02/08 10:23:24;;;;;;;7.25;2.15;;;;;;;6.85;66.11;98050.97;5095433;28;20055;-76
2022/02/08 10:26:00;;;;;;;7.63;2.20;;;;;;;6.94;66.10;98047.63;5095608;28;20048;-77
2022/02/08 10:28:51;;;;;;;10.57;2.22;;;;;;;7.05;66.00;98048.56;5096881;28;20052;-77
2022/02/08 10:40:00;;;;;;;8.00;2.10;;;;;;;7.49;62.50;98057.06;5096733;28;20059;-77
2022/02/08 10:42:29;;;;;;;4.63;1.33;;;;;;;7.53;62.63;98061.06;5096927;28;20067;-77
2022/02/08 10:44:57;;;;;;;7.70;1.63;;;;;;;7.67;60.74;98062.50;5096687;28;20047;-76
2022/02/08 10:47:36;;;;;;;5.28;1.40;;;;;;;7.88;61.17;98054.72;5096727;28;20048;-77
2022/02/08 10:50:08;;;;;;;5.47;1.80;;;;;;;8.34;58.92;98056.00;5096693;28;20044;-77
2022/02/08 10:52:36;;;;;;;7.03;2.78;;;;;;;8.53;58.15;98058.72;5095381;28;20052;-77
2022/02/08 10:55:13;;;;;;;4.03;1.30;;;;;;;8.57;57.22;98047.09;5094455;28;20048;-77
2022/02/08 10:57:52;;;;;;;3.90;1.60;;;;;;;8.60;56.94;98041.59;5094822;28;20422;-77
2022/02/08 11:00:26;;;;;;;6.80;1.90;;;;;;;8.87;58.37;98047.94;5095035;28;20054;-77
2022/02/08 11:02:56;;;;;;;5.85;2.42;;;;;;;9.13;57.57;98047.41;5094684;28;20608;-77
2022/02/08 11:05:36;;;;;;;5.70;1.75;;;;;;;9.66;56.37;98054.75;5094993;28;20498;-78
2022/02/08 11:08:16;;;;;;;6.82;1.60;;;;;;;9.57;56.97;98050.41;5094866;28;20052;-78
2022/02/08 11:10:59;;;;;;;6.90;2.00;;;;;;;9.30;56.38;98058.94;5108319;28;20489;-78
2022/02/08 11:16:25;;;;;;;8.02;2.40;;;;;;;8.73;58.03;98045.75;5089363;28;20078;-77
2022/02/08 11:19:25;;;;;;;4.32;1.73;;;;;;;8.56;58.49;98048.03;5109627;28;20079;-77
2022/02/08 11:22:04;;;;;;;11.18;2.78;;;;;;;8.43;59.99;98044.84;5109966;28;20079;-77
2022/02/08 11:24:40;;;;;;;8.93;2.67;;;;;;;8.31;59.91;98044.09;5109922;28;20074;-77
2022/02/08 11:27:13;;;;;;;5.72;1.95;;;;;;;8.19;60.69;98043.34;5109604;28;20143;-77
2022/02/08 11:29:50;;;;;;;5.90;1.77;;;;;;;8.08;60.03;98047.84;5105211;28;20497;-77
2022/02/08 11:32:26;;;;;;;5.75;1.92;;;;;;;7.99;60.74;98041.63;5094525;28;20052;-77
2022/02/08 11:43:38;;;;;;;6.88;2.05;;;;;;;7.74;60.71;98048.06;5094254;28;20486;-76
2022/02/08 11:46:26;;;;;;;7.30;3.13;;;;;;;7.69;58.39;98042.44;5093789;28;20666;-77
2022/02/08 11:51:54;;;;;;;5.15;1.67;;;;;;;7.62;61.44;98044.72;5094682;28;20044;-77
2022/02/08 11:54:54;;;;;;;8.45;2.20;;;;;;;7.58;61.69;98046.75;5094049;28;20044;-77
2022/02/08 11:58:04;;;;;;;8.23;1.95;;;;;;;7.56;60.73;98045.22;5101153;28;20036;-77
2022/02/08 12:00:37;;;;;;;8.77;2.58;;;;;;;7.57;62.78;98046.88;5098913;28;20044;-77
2022/02/08 12:06:08;;;;;;;4.72;2.08;;;;;;;7.55;62.21;98039.22;5097912;28;20076;-77
2022/02/08 12:08:40;;;;;;;10.07;2.90;;;;;;;7.54;63.39;98042.78;5110904;28;20059;-77
2022/02/08 12:11:29;;;;;;;5.18;2.30;;;;;;;7.57;63.57;98033.91;5110949;28;20086;-78
2022/02/08 12:27:04;;;;;;;5.50;2.42;;;;;;;7.59;63.63;98029.41;5105510;28;20052;-78
2022/02/08 12:31:40;;;;;;;6.72;2.30;;;;;;;7.73;62.92;98021.28;5093682;28;20044;-77
2022/02/08 12:34:26;;;;;;;6.25;2.72;;;;;;;7.79;62.91;98010.38;5093396;28;20075;-77
2022/02/08 12:48:51;;;;;;;2.65;1.33;;;;;;;7.95;62.03;98001.28;5092775;28;20048;-77
2022/02/08 12:54:23;;;;;;;3.50;1.60;;;;;;;7.89;63.22;98007.00;5094267;28;20051;-77
2022/02/08 12:57:06;;;;;;;5.15;1.63;;;;;;;7.88;63.70;97998.38;5093544;28;20052;-78
2022/02/08 12:59:48;;;;;;;3.22;1.48;;;;;;;7.87;63.79;97998.50;5093397;28;20460;-76
2022/02/08 13:02:31;;;;;;;6.30;1.80;;;;;;;7.86;64.21;97994.28;5093959;28;20399;-76
2022/02/08 13:24:58;;;;;;;5.70;1.73;;;;;;;7.79;64.60;97974.00;5092847;28;20052;-77
2022/02/08 14:06:46;;;;;;;3.42;1.38;;;;;;;7.47;65.65;97936.94;5095876;28;20075;-77
2022/02/08 14:09:32;;;;;;;5.20;1.73;;;;;;;7.46;67.09;97945.69;5096196;28;20464;-78
2022/02/08 14:12:35;;;;;;;5.47;1.85;;;;;;;7.47;66.66;97942.97;5095686;28;20056;-77
2022/02/08 14:18:00;;;;;;;5.32;1.80;;;;;;;7.51;67.43;97938.34;5095602;28;20056;-77
2022/02/08 14:23:26;;;;;;;3.78;1.73;;;;;;;7.52;67.24;97945.16;5082711;28;20489;-77
2022/02/08 14:29:16;;;;;;;6.38;1.65;;;;;;;7.52;67.60;97950.34;5095399;28;20463;-77
2022/02/08 14:32:18;;;;;;;3.13;1.40;;;;;;;7.49;67.43;97937.66;5097715;28;20048;-78
2022/02/08 14:35:12;;;;;;;5.70;1.73;;;;;;;7.47;67.90;97937.75;5097541;28;20055;-77
2022/02/08 15:05:37;;;;;;;3.85;1.40;;;;;;;7.53;67.99;97939.03;5057695;28;20049;-77
2022/02/08 15:08:12;;;;;;;6.35;2.17;;;;;;;7.58;69.13;97937.69;5058145;28;20053;-76
2022/02/08 15:10:44;;;;;;;4.20;1.70;;;;;;;7.62;69.04;97931.28;5056774;28;20060;-75
2022/02/08 15:13:12;;;;;;;4.28;1.85;;;;;;;7.64;69.87;97925.97;5058934;28;20052;-77
2022/02/08 15:16:22;;;;;;;4.50;1.90;;;;;;;7.64;69.49;97931.97;5058874;28;20079;-76
2022/02/08 15:18:50;;;;;;;5.18;2.05;;;;;;;7.69;70.49;97935.94;5058027;28;20049;-76
2022/02/08 15:21:21;;;;;;;5.55;2.42;;;;;;;7.69;71.48;97936.75;5057910;28;20059;-75
2022/02/08 15:23:50;;;;;;;6.85;1.70;;;;;;;7.70;70.47;97935.00;5057493;28;20057;-77
2022/02/08 15:26:18;;;;;;;4.00;1.75;;;;;;;7.70;70.83;97948.81;5060281;28;20060;-77
2022/02/08 15:28:46;;;;;;;6.38;2.10;;;;;;;7.71;71.59;97944.44;5061144;28;20244;-78
2022/02/08 15:31:15;;;;;;;5.07;2.15;;;;;;;7.70;71.85;97942.81;5062225;28;20545;-76
2022/02/08 15:33:42;;;;;;;7.40;2.10;;;;;;;7.69;71.82;97947.16;5062422;28;20053;-76
2022/02/08 15:36:15;;;;;;;8.70;2.00;;;;;;;7.68;72.14;97952.50;5061390;28;20060;-78
2022/02/08 15:38:47;;;;;;;4.10;1.55;;;;;;;7.66;71.88;97947.44;5062115;28;20048;-77
2022/02/08 15:41:16;;;;;;;5.97;1.67;;;;;;;7.65;71.18;97950.97;5058375;28;20068;-77
2022/02/08 15:43:44;;;;;;;3.92;1.48;;;;;;;7.66;71.25;97946.63;5060144;28;20517;-77
2022/02/08 15:46:18;;;;;;;3.67;1.10;;;;;;;7.65;71.56;97953.56;5056389;28;20048;-76
2022/02/08 15:48:49;;;;;;;4.55;1.05;;;;;;;7.63;71.81;97951.13;5058922;28;20049;-78
2022/02/08 15:51:23;;;;;;;6.90;1.05;;;;;;;7.62;72.00;97948.63;5055472;28;20060;-77
2022/02/08 15:54:09;;;;;;;4.25;1.40;;;;;;;7.60;72.50;97953.13;5057154;28;20057;-77
2022/02/08 15:57:10;;;;;;;2.17;1.00;;;;;;;7.58;72.21;97955.84;5058886;28;20525;-76
2022/02/08 16:05:38;;;;;;;2.60;1.45;;;;;;;7.54;72.67;97966.63;5055029;28;20053;-76